createdAt,value
2023-03-03T00:01:03.800Z,5.30
2023-03-03T00:03:31.259Z,5.20
2023-03-03T00:05:59.495Z,5.20
2023-03-03T00:08:26.945Z,5.20
2023-03-03T00:10:55.698Z,5.10
2023-03-03T00:13:26.338Z,5.10
2023-03-03T00:15:56.404Z,5.00
2023-03-03T00:18:33.700Z,5.00
2023-03-03T00:21:02.831Z,5.00
2023-03-03T00:23:38.867Z,5.00
2023-03-03T00:26:26.272Z,4.90
2023-03-03T00:28:54.824Z,4.90
2023-03-03T00:31:33.755Z,4.90
2023-03-03T00:34:20.238Z,4.80
2023-03-03T00:36:49.881Z,4.80
2023-03-03T00:39:37.229Z,4.80
2023-03-03T00:42:34.516Z,4.80
2023-03-03T00:45:01.795Z,4.80
2023-03-03T00:47:38.687Z,4.80
2023-03-03T00:50:12.254Z,4.70
2023-03-03T00:52:44.999Z,4.70
2023-03-03T00:55:12.674Z,4.70
2023-03-03T00:57:39.896Z,4.70
2023-03-03T01:00:11.711Z,4.80
2023-03-03T01:02:39.503Z,4.70
2023-03-03T01:05:07.031Z,4.70
2023-03-03T01:07:34.269Z,4.70
2023-03-03T01:10:01.879Z,4.70
2023-03-03T01:12:29.517Z,4.70
2023-03-03T01:14:56.989Z,4.70
2023-03-03T01:17:24.199Z,4.70
2023-03-03T01:19:51.379Z,4.70
2023-03-03T01:22:18.709Z,4.70
2023-03-03T01:24:45.908Z,4.70
2023-03-03T01:27:13.054Z,4.70
2023-03-03T01:29:40.233Z,4.70
2023-03-03T01:32:07.425Z,4.70
2023-03-03T01:34:34.568Z,4.70
2023-03-03T01:37:01.866Z,4.70
2023-03-03T01:39:29.070Z,4.60
2023-03-03T01:41:56.702Z,4.60
2023-03-03T01:44:23.946Z,4.60
2023-03-03T01:47:17.661Z,4.60
2023-03-03T01:49:58.920Z,4.60
2023-03-03T01:52:34.289Z,4.60
2023-03-03T01:55:10.359Z,4.60
2023-03-03T01:57:42.806Z,4.60
2023-03-03T02:00:11.491Z,4.60
2023-03-03T02:02:42.769Z,4.60
2023-03-03T02:05:10.951Z,4.60
2023-03-03T02:07:39.297Z,4.60
2023-03-03T02:10:18.900Z,4.60
2023-03-03T02:12:46.020Z,4.50
2023-03-03T02:15:23.564Z,4.50
2023-03-03T02:17:57.728Z,4.50
2023-03-03T02:20:40.274Z,4.50
2023-03-03T02:23:14.278Z,4.50
2023-03-03T02:25:58.783Z,4.50
2023-03-03T02:28:32.783Z,4.50
2023-03-03T02:31:08.072Z,4.50
2023-03-03T02:33:35.434Z,4.50
2023-03-03T02:36:02.676Z,4.50
2023-03-03T02:38:48.697Z,4.50
2023-03-03T02:41:37.136Z,4.50
2023-03-03T02:44:13.086Z,4.50
2023-03-03T02:46:45.175Z,4.50
2023-03-03T02:49:14.912Z,4.50
2023-03-03T02:51:42.781Z,4.50
2023-03-03T02:54:12.328Z,4.50
2023-03-03T02:56:39.997Z,4.50
2023-03-03T02:59:07.848Z,4.50
2023-03-03T03:01:40.895Z,4.50
2023-03-03T03:04:14.277Z,4.50
2023-03-03T03:06:44.647Z,4.50
2023-03-03T03:09:14.397Z,4.50
2023-03-03T03:11:41.956Z,4.50
2023-03-03T03:14:11.937Z,4.50
2023-03-03T03:16:40.578Z,4.50
2023-03-03T03:19:08.629Z,4.50
2023-03-03T03:21:37.542Z,4.50
2023-03-03T03:24:06.793Z,4.50
2023-03-03T03:26:35.498Z,4.50
2023-03-03T03:29:03.625Z,4.50
2023-03-03T03:31:31.904Z,4.50
2023-03-03T03:34:00.754Z,4.50
2023-03-03T03:36:29.824Z,4.50
2023-03-03T03:38:57.255Z,4.50
2023-03-03T03:41:24.542Z,4.50
2023-03-03T03:43:51.746Z,4.50
2023-03-03T03:46:19.052Z,4.50
2023-03-03T03:48:46.683Z,4.60
2023-03-03T03:51:17.315Z,4.60
2023-03-03T03:53:44.701Z,4.60
2023-03-03T03:56:12.313Z,4.60
2023-03-03T03:58:41.880Z,4.60
2023-03-03T04:01:10.947Z,4.60
2023-03-03T04:03:43.572Z,4.60
2023-03-03T04:06:14.362Z,4.60
2023-03-03T04:08:41.928Z,4.60
2023-03-03T04:11:10.156Z,4.60
2023-03-03T04:13:38.226Z,4.60
2023-03-03T04:16:07.627Z,4.60
2023-03-03T04:18:35.941Z,4.60
2023-03-03T04:21:04.353Z,4.60
2023-03-03T04:23:32.342Z,4.70
2023-03-03T04:26:01.064Z,4.70
2023-03-03T04:28:28.680Z,4.70
2023-03-03T04:30:56.185Z,4.70
2023-03-03T04:33:24.374Z,4.70
2023-03-03T04:35:51.802Z,4.80
2023-03-03T04:38:19.850Z,4.70
2023-03-03T04:40:48.793Z,4.80
2023-03-03T04:43:17.868Z,4.80
2023-03-03T04:45:45.191Z,4.80
2023-03-03T04:48:12.554Z,4.80
2023-03-03T04:50:41.782Z,4.80
2023-03-03T04:53:09.406Z,4.80
2023-03-03T04:55:38.102Z,4.80
2023-03-03T04:58:06.554Z,4.70
2023-03-03T05:00:34.101Z,4.70
2023-03-03T05:03:02.692Z,4.70
2023-03-03T05:05:29.866Z,4.80
2023-03-03T05:07:57.037Z,4.80
2023-03-03T05:10:24.222Z,4.80
2023-03-03T05:12:51.658Z,4.80
2023-03-03T05:15:19.583Z,4.80
2023-03-03T05:17:46.859Z,4.80
2023-03-03T05:20:14.496Z,4.80
2023-03-03T05:22:41.870Z,4.80
2023-03-03T05:25:10.779Z,4.80
2023-03-03T05:27:38.118Z,4.80
2023-03-03T05:30:05.992Z,4.80
2023-03-03T05:32:33.277Z,4.80
2023-03-03T05:35:00.423Z,4.80
2023-03-03T05:37:27.643Z,4.80
2023-03-03T05:39:54.762Z,4.80
2023-03-03T05:42:22.182Z,4.80
2023-03-03T05:44:49.484Z,4.80
2023-03-03T05:47:16.715Z,4.80
2023-03-03T05:49:43.950Z,4.90
2023-03-03T05:52:12.309Z,4.90
2023-03-03T05:54:39.581Z,4.80
2023-03-03T05:57:06.892Z,4.90
2023-03-03T05:59:34.096Z,4.90
2023-03-03T06:02:01.351Z,4.90
2023-03-03T06:04:28.599Z,4.90
2023-03-03T06:06:55.712Z,4.90
2023-03-03T06:09:22.904Z,4.90
2023-03-03T06:11:50.151Z,4.90
2023-03-03T06:14:17.342Z,4.90
2023-03-03T06:16:44.538Z,4.90
2023-03-03T06:19:11.887Z,4.90
2023-03-03T06:21:39.228Z,4.90
2023-03-03T06:24:07.078Z,4.90
2023-03-03T06:26:34.306Z,4.90
2023-03-03T06:29:01.871Z,4.90
2023-03-03T06:31:29.251Z,5.00
2023-03-03T06:33:56.577Z,5.00
2023-03-03T06:36:23.988Z,5.00
2023-03-03T06:38:51.595Z,5.00
2023-03-03T06:41:19.234Z,5.00
2023-03-03T06:43:46.529Z,5.00
2023-03-03T06:46:13.778Z,5.00
2023-03-03T06:48:42.098Z,5.00
2023-03-03T06:51:36.342Z,5.00
2023-03-03T06:54:15.498Z,5.00
2023-03-03T06:56:44.715Z,5.00
2023-03-03T06:59:20.896Z,5.00
2023-03-03T07:01:50.751Z,5.00
2023-03-03T07:04:25.779Z,5.00
2023-03-03T07:06:53.105Z,5.00
2023-03-03T07:09:24.172Z,5.00
2023-03-03T07:11:52.727Z,5.00
2023-03-03T07:14:21.388Z,5.00
2023-03-03T07:16:56.949Z,5.00
2023-03-03T07:19:43.421Z,5.00
2023-03-03T07:22:25.090Z,5.00
2023-03-03T07:24:56.265Z,5.00
2023-03-03T07:27:29.760Z,5.00
2023-03-03T07:30:27.863Z,5.00
2023-03-03T07:32:58.350Z,5.00
2023-03-03T07:35:37.812Z,5.00
2023-03-03T07:38:42.592Z,5.10
2023-03-03T07:41:15.096Z,5.10
2023-03-03T07:44:05.947Z,5.10
2023-03-03T07:46:43.817Z,5.10
2023-03-03T07:49:36.107Z,5.10
2023-03-03T07:52:21.018Z,5.20
2023-03-03T07:54:48.362Z,5.10
2023-03-03T07:57:21.364Z,5.10
2023-03-03T07:59:51.524Z,5.10
2023-03-03T08:02:38.261Z,5.10
2023-03-03T08:05:28.498Z,5.20
2023-03-03T08:08:26.454Z,5.20
2023-03-03T08:10:55.873Z,5.20
2023-03-03T08:13:25.268Z,5.20
2023-03-03T08:16:00.001Z,5.20
2023-03-03T08:18:48.490Z,5.20
2023-03-03T08:21:24.460Z,5.30
2023-03-03T08:24:03.130Z,5.30
2023-03-03T08:26:30.558Z,5.30
2023-03-03T08:28:58.234Z,5.30
2023-03-03T08:31:40.350Z,5.30
2023-03-03T08:34:09.024Z,5.40
2023-03-03T08:36:36.598Z,5.40
2023-03-03T08:39:05.644Z,5.40
2023-03-03T08:41:58.138Z,5.40
2023-03-03T08:44:25.527Z,5.50
2023-03-03T08:46:52.866Z,5.50
2023-03-03T08:49:20.497Z,5.60
2023-03-03T08:51:48.178Z,5.60
2023-03-03T08:54:15.783Z,5.60
2023-03-03T08:56:43.420Z,5.60
2023-03-03T08:59:11.601Z,5.50
2023-03-03T09:01:38.936Z,5.50
2023-03-03T09:04:06.874Z,5.60
2023-03-03T09:06:34.326Z,5.60
2023-03-03T09:09:01.812Z,5.50
2023-03-03T09:11:31.077Z,5.50
2023-03-03T09:14:13.325Z,5.50
2023-03-03T09:16:51.611Z,5.50
2023-03-03T09:19:30.012Z,5.50
2023-03-03T09:22:03.508Z,5.50
2023-03-03T09:24:32.277Z,5.50
2023-03-03T09:27:00.149Z,5.50
2023-03-03T09:29:37.509Z,5.50
2023-03-03T09:32:31.510Z,5.50
2023-03-03T09:34:59.652Z,5.50
2023-03-03T09:37:37.603Z,5.50
2023-03-03T09:40:41.289Z,5.40
2023-03-03T09:43:33.083Z,5.40
2023-03-03T09:46:12.350Z,5.40
2023-03-03T09:48:39.717Z,5.40
2023-03-03T09:51:36.259Z,5.50
2023-03-03T09:54:12.551Z,5.50
2023-03-03T09:57:04.319Z,5.50
2023-03-03T09:59:47.759Z,5.50
2023-03-03T10:02:46.900Z,5.50
2023-03-03T10:05:20.232Z,5.50
2023-03-03T10:08:07.056Z,5.50
2023-03-03T10:11:04.256Z,5.50
2023-03-03T10:13:45.767Z,5.50
2023-03-03T10:16:19.413Z,5.50
2023-03-03T10:19:07.419Z,5.60
2023-03-03T10:21:37.532Z,5.60
2023-03-03T10:24:30.407Z,5.60
2023-03-03T10:27:14.214Z,5.60
2023-03-03T10:30:05.478Z,5.60
2023-03-03T10:32:51.830Z,5.60
2023-03-03T10:35:37.927Z,5.60
2023-03-03T10:38:17.066Z,5.70
2023-03-03T10:40:59.263Z,5.70
2023-03-03T10:43:58.721Z,5.70
2023-03-03T10:46:53.295Z,5.70
2023-03-03T10:49:55.899Z,5.80
2023-03-03T10:52:31.723Z,5.80
2023-03-03T10:55:40.549Z,5.80
2023-03-03T10:58:45.928Z,5.80
2023-03-03T11:02:07.375Z,5.80
2023-03-03T11:04:47.625Z,5.80
2023-03-03T11:07:33.951Z,5.80
2023-03-03T11:10:17.878Z,5.90
2023-03-03T11:12:48.159Z,5.90
2023-03-03T11:15:45.143Z,5.90
2023-03-03T11:18:27.428Z,5.90
2023-03-03T11:20:58.615Z,6.00
2023-03-03T11:23:50.091Z,6.00
2023-03-03T11:26:48.560Z,6.00
2023-03-03T11:29:58.788Z,6.00
2023-03-03T11:32:45.083Z,6.00
2023-03-03T11:35:32.557Z,6.00
2023-03-03T11:38:37.782Z,6.10
2023-03-03T11:41:11.933Z,6.20
2023-03-03T11:43:45.701Z,6.10
2023-03-03T11:46:25.239Z,6.10
2023-03-03T11:49:35.083Z,6.10
2023-03-03T11:52:20.497Z,6.20
2023-03-03T11:55:03.150Z,6.20
2023-03-03T11:57:38.178Z,6.20
2023-03-03T12:00:24.368Z,6.30
2023-03-03T12:02:59.146Z,6.40
2023-03-03T12:05:40.402Z,6.40
2023-03-03T12:08:18.442Z,6.50
2023-03-03T12:10:51.675Z,6.50
2023-03-03T12:13:18.955Z,6.50
2023-03-03T12:15:51.911Z,6.60
2023-03-03T12:18:20.197Z,6.60
2023-03-03T12:21:02.677Z,6.60
2023-03-03T12:23:44.934Z,6.60
2023-03-03T12:26:17.338Z,6.70
2023-03-03T12:28:58.074Z,6.60
2023-03-03T12:31:52.648Z,6.60
2023-03-03T12:34:28.873Z,6.60
2023-03-03T12:37:00.167Z,6.50
2023-03-03T12:39:36.302Z,6.60
2023-03-03T12:42:12.230Z,6.60
2023-03-03T12:45:12.928Z,6.60
2023-03-03T12:48:01.603Z,6.60
2023-03-03T12:50:46.873Z,6.60
2023-03-03T12:53:17.090Z,6.60
2023-03-03T12:56:02.798Z,6.70
2023-03-03T12:58:56.430Z,6.70
2023-03-03T13:01:42.009Z,6.70
2023-03-03T13:04:12.701Z,6.70
2023-03-03T13:06:45.801Z,6.70
2023-03-03T13:09:23.014Z,6.70
2023-03-03T13:12:26.637Z,6.70
2023-03-03T13:15:24.842Z,6.60
2023-03-03T13:18:38.267Z,6.70
2023-03-03T13:21:20.828Z,6.70
2023-03-03T13:24:10.874Z,6.60
2023-03-03T13:27:05.786Z,6.60
2023-03-03T13:29:41.321Z,6.60
2023-03-03T13:32:18.167Z,6.70
2023-03-03T13:35:02.971Z,6.70
2023-03-03T13:37:32.574Z,6.70
2023-03-03T13:40:01.655Z,6.70
2023-03-03T13:42:54.946Z,6.70
2023-03-03T13:45:51.188Z,6.70
2023-03-03T13:48:27.338Z,6.60
2023-03-03T13:50:58.605Z,6.70
2023-03-03T13:53:53.183Z,6.70
2023-03-03T13:56:51.632Z,6.60
2023-03-03T13:59:56.061Z,6.60
2023-03-03T14:02:48.548Z,6.60
2023-03-03T14:05:37.467Z,6.60
2023-03-03T14:08:49.393Z,6.50
2023-03-03T14:11:49.957Z,6.50
2023-03-03T14:14:41.423Z,6.60
2023-03-03T14:17:33.986Z,6.60
2023-03-03T14:20:13.321Z,6.60
2023-03-03T14:22:43.468Z,6.50
2023-03-03T14:25:14.416Z,6.50
2023-03-03T14:27:59.901Z,6.50
2023-03-03T14:30:37.916Z,6.50
2023-03-03T14:33:08.460Z,6.50
2023-03-03T14:35:38.746Z,6.40
2023-03-03T14:38:09.144Z,6.40
2023-03-03T14:40:39.251Z,6.50
2023-03-03T14:43:24.799Z,6.50
2023-03-03T14:45:53.553Z,6.50
2023-03-03T14:48:23.876Z,6.60
2023-03-03T14:51:13.860Z,6.60
2023-03-03T14:53:48.237Z,6.60
2023-03-03T14:56:28.399Z,6.50
2023-03-03T14:59:19.053Z,6.50
2023-03-03T15:01:46.709Z,6.40
2023-03-03T15:04:16.942Z,6.40
2023-03-03T15:06:50.704Z,6.50
2023-03-03T15:09:36.827Z,6.50
2023-03-03T15:12:22.855Z,6.50
2023-03-03T15:15:02.789Z,6.40
2023-03-03T15:17:40.405Z,6.40
2023-03-03T15:20:22.815Z,6.40
2023-03-03T15:23:27.741Z,6.40
2023-03-03T15:26:13.203Z,6.40
2023-03-03T15:28:49.547Z,6.30
2023-03-03T15:31:41.806Z,6.30
2023-03-03T15:34:37.779Z,6.30
2023-03-03T15:37:42.484Z,6.30
2023-03-03T15:40:09.795Z,6.30
2023-03-03T15:42:47.620Z,6.40
2023-03-03T15:45:17.671Z,6.40
2023-03-03T15:47:59.960Z,6.30
2023-03-03T15:51:02.437Z,6.40
2023-03-03T15:53:53.090Z,6.40
2023-03-03T15:56:41.810Z,6.40
2023-03-03T15:59:17.843Z,6.40
2023-03-03T16:02:00.616Z,6.40
2023-03-03T16:04:36.218Z,6.40
2023-03-03T16:07:22.896Z,6.30
2023-03-03T16:09:53.965Z,6.30
2023-03-03T16:12:36.204Z,6.20
2023-03-03T16:15:29.460Z,6.20
2023-03-03T16:18:04.520Z,6.20
2023-03-03T16:21:09.234Z,6.20
2023-03-03T16:23:51.748Z,6.30
2023-03-03T16:26:53.711Z,6.20
2023-03-03T16:29:51.258Z,6.20
2023-03-03T16:32:38.346Z,6.20
2023-03-03T16:35:33.179Z,6.10
2023-03-03T16:38:02.291Z,6.10
2023-03-03T16:40:47.875Z,6.10
2023-03-03T16:43:27.014Z,6.20
2023-03-03T16:46:01.521Z,6.20
2023-03-03T16:49:00.821Z,6.20
2023-03-03T16:51:39.448Z,6.20
2023-03-03T16:54:33.460Z,6.10
2023-03-03T16:57:51.614Z,6.10
2023-03-03T17:00:27.061Z,6.10
2023-03-03T17:03:26.662Z,6.10
2023-03-03T17:05:58.052Z,6.10
2023-03-03T17:08:28.180Z,6.10
2023-03-03T17:11:39.542Z,6.10
2023-03-03T17:14:33.922Z,6.10
2023-03-03T17:17:10.399Z,6.00
2023-03-03T17:19:46.375Z,6.00
2023-03-03T17:22:50.127Z,6.00
2023-03-03T17:25:49.929Z,6.00
2023-03-03T17:28:39.492Z,6.00
2023-03-03T17:31:13.029Z,6.00
2023-03-03T17:33:52.933Z,6.00
2023-03-03T17:36:52.682Z,5.90
2023-03-03T17:39:29.205Z,5.90
2023-03-03T17:42:31.701Z,5.90
2023-03-03T17:45:12.671Z,5.90
2023-03-03T17:47:49.306Z,5.90
2023-03-03T17:50:19.484Z,5.90
2023-03-03T17:53:08.789Z,5.90
2023-03-03T17:55:41.630Z,5.90
2023-03-03T17:58:27.634Z,5.90
2023-03-03T18:01:00.906Z,5.90
2023-03-03T18:03:52.237Z,5.90
2023-03-03T18:06:58.717Z,6.00
2023-03-03T18:09:48.308Z,6.00
2023-03-03T18:12:21.107Z,6.00
2023-03-03T18:15:12.972Z,6.00
2023-03-03T18:18:01.645Z,6.00
2023-03-03T18:20:47.260Z,6.00
2023-03-03T18:23:42.011Z,6.00
2023-03-03T18:26:40.281Z,6.00
2023-03-03T18:29:16.643Z,5.90
2023-03-03T18:31:53.771Z,6.00
2023-03-03T18:34:21.050Z,5.90
2023-03-03T18:36:59.683Z,6.00
2023-03-03T18:39:46.229Z,6.00
2023-03-03T18:42:17.147Z,5.90
2023-03-03T18:44:45.177Z,5.90
2023-03-03T18:47:12.523Z,5.90
2023-03-03T18:49:53.711Z,6.00
2023-03-03T18:52:24.100Z,6.00
2023-03-03T18:55:09.784Z,5.90
2023-03-03T18:57:38.034Z,5.90
2023-03-03T19:00:28.510Z,6.00
2023-03-03T19:02:58.675Z,6.00
2023-03-03T19:05:48.280Z,6.00
2023-03-03T19:08:45.744Z,6.00
2023-03-03T19:11:32.493Z,6.00
2023-03-03T19:14:26.081Z,6.00
2023-03-03T19:16:55.276Z,6.00
2023-03-03T19:19:34.889Z,6.00
2023-03-03T19:22:24.317Z,6.00
2023-03-03T19:25:14.983Z,6.00
2023-03-03T19:27:45.035Z,6.00
2023-03-03T19:30:28.369Z,6.00
2023-03-03T19:33:28.144Z,6.00
2023-03-03T19:36:21.366Z,6.00
2023-03-03T19:39:16.944Z,6.00
2023-03-03T19:42:01.368Z,6.00
2023-03-03T19:44:49.686Z,6.00
2023-03-03T19:47:54.715Z,6.00
2023-03-03T19:51:00.733Z,6.00
2023-03-03T19:53:52.745Z,5.90
2023-03-03T19:56:47.369Z,5.90
2023-03-03T19:59:32.813Z,5.90
2023-03-03T20:02:12.560Z,5.90
2023-03-03T20:05:22.675Z,5.90
2023-03-03T20:08:11.529Z,5.90
2023-03-03T20:11:00.999Z,5.90
2023-03-03T20:13:44.013Z,5.90
2023-03-03T20:16:15.127Z,5.90
2023-03-03T20:18:47.499Z,5.90
2023-03-03T20:21:35.780Z,6.00
2023-03-03T20:24:25.527Z,6.00
2023-03-03T20:27:20.010Z,6.00
2023-03-03T20:29:59.186Z,6.00
2023-03-03T20:32:54.890Z,6.00
2023-03-03T20:35:42.556Z,6.00
2023-03-03T20:38:29.621Z,5.90
2023-03-03T20:41:14.947Z,5.90
2023-03-03T20:43:51.243Z,5.90
2023-03-03T20:46:45.264Z,5.90
2023-03-03T20:49:25.877Z,5.80
2023-03-03T20:52:01.963Z,5.80
2023-03-03T20:54:39.017Z,5.70
2023-03-03T20:57:34.230Z,5.70
2023-03-03T21:00:15.903Z,5.60
2023-03-03T21:03:03.454Z,5.60
2023-03-03T21:05:30.753Z,5.60
2023-03-03T21:08:03.600Z,5.50
2023-03-03T21:10:35.586Z,5.60
2023-03-03T21:13:31.079Z,5.50
2023-03-03T21:16:10.169Z,5.50
2023-03-03T21:18:37.395Z,5.50
2023-03-03T21:21:05.309Z,5.50
2023-03-03T21:23:32.757Z,5.40
2023-03-03T21:26:00.157Z,5.40
2023-03-03T21:28:31.964Z,5.30
2023-03-03T21:31:17.343Z,5.30
2023-03-03T21:33:58.590Z,5.30
2023-03-03T21:36:34.590Z,5.30
2023-03-03T21:39:18.816Z,5.30
2023-03-03T21:41:53.803Z,5.30
2023-03-03T21:44:33.444Z,5.20
2023-03-03T21:47:01.709Z,5.20
2023-03-03T21:49:29.172Z,5.10
2023-03-03T21:51:57.137Z,5.10
2023-03-03T21:54:24.664Z,5.00
2023-03-03T21:56:52.619Z,5.00
2023-03-03T21:59:19.935Z,4.90
2023-03-03T22:01:47.271Z,4.90
2023-03-03T22:04:15.003Z,4.90
2023-03-03T22:06:42.388Z,4.80
2023-03-03T22:09:09.828Z,4.80
2023-03-03T22:11:37.251Z,4.80
2023-03-03T22:14:04.614Z,4.80
2023-03-03T22:16:31.950Z,4.70
2023-03-03T22:19:01.115Z,4.70
2023-03-03T22:21:30.481Z,4.60
2023-03-03T22:23:58.431Z,4.60
2023-03-03T22:26:25.689Z,4.60
2023-03-03T22:28:52.875Z,4.50
2023-03-03T22:31:20.510Z,4.50
2023-03-03T22:33:48.613Z,4.50
2023-03-03T22:36:16.558Z,4.40
2023-03-03T22:38:43.648Z,4.40
2023-03-03T22:41:10.953Z,4.40
2023-03-03T22:43:38.181Z,4.30
2023-03-03T22:46:05.784Z,4.30
2023-03-03T22:48:33.097Z,4.30
2023-03-03T22:51:00.384Z,4.30
2023-03-03T22:53:27.555Z,4.20
2023-03-03T22:55:54.864Z,4.20
2023-03-03T22:58:25.574Z,4.20
2023-03-03T23:00:54.181Z,4.20
2023-03-03T23:03:21.541Z,4.20
2023-03-03T23:05:51.441Z,4.10
2023-03-03T23:08:20.485Z,4.20
2023-03-03T23:10:48.572Z,4.20
2023-03-03T23:13:15.898Z,4.20
2023-03-03T23:15:43.691Z,4.20
2023-03-03T23:18:10.914Z,4.20
2023-03-03T23:20:38.121Z,4.20
2023-03-03T23:23:05.396Z,4.20
2023-03-03T23:25:32.868Z,4.20
2023-03-03T23:28:00.567Z,4.20
2023-03-03T23:30:27.888Z,4.30
2023-03-03T23:32:55.018Z,4.30
2023-03-03T23:35:22.522Z,4.30
2023-03-03T23:37:49.763Z,4.30
2023-03-03T23:40:17.808Z,4.30
2023-03-03T23:42:45.169Z,4.30
2023-03-03T23:45:13.221Z,4.30
2023-03-03T23:47:40.828Z,4.30
2023-03-03T23:50:09.617Z,4.30
2023-03-03T23:52:37.532Z,4.30
2023-03-03T23:55:05.630Z,4.20
2023-03-03T23:57:32.774Z,4.20
2023-03-03T23:59:59.970Z,4.20
